Aérodrome :
LOGIN :

S'inscrire | Disclaimer

   EN    FR    IT 

 










Légende :    VFR   VFR Marginal   IFR   IFR Intensif   IFR Très Intensif
Visi : 
Plafond : 
>= 8 km
>= 3000ft
5 à 8 km
1000 à 3000 ft
1500m à 5 km
500 à 1000 ft
800 à 1500m
200 à 500 ft
< 800m
< 200 ft
Symboles :   Orages  Brouillard  Fortes neiges  Fortes précipitations  Vent > 20 kt
SIGMETs :   Divers  Orages  Givrage  Turbulence  Onde Orograph.  Cendres Volcan.






- Altitude de l'aérodrome : 580 ft


LFOA - Avord

DERNIER METAR :
  • 190500Z AUTO 08004KT CAVOK 18/15 Q1018 NOSIG

METARs EXPIRÉS :
  • 190430Z AUTO VRB02KT CAVOK 17/15 Q1018 NOSIG
  • 190400Z AUTO 07004KT CAVOK 18/15 Q1018 NOSIG
  • 190330Z AUTO 08006KT CAVOK 18/15 Q1018 NOSIG
  • 190300Z AUTO 08005KT CAVOK 18/15 Q1018 NOSIG
  • 190230Z AUTO 09005KT CAVOK 18/15 Q1018 NOSIG
  • 190200Z AUTO 08005KT CAVOK 18/16 Q1018 NOSIG
  • 190130Z AUTO 09006KT CAVOK 18/15 Q1018 NOSIG
  • 190100Z AUTO 08006KT CAVOK 19/15 Q1018 NOSIG
  • 190030Z AUTO 08005KT CAVOK 19/15 Q1018 NOSIG

TAF AMD TAF LFOA
Valide du 19 à 03h jusqu'au 20 à 03h UTC


190345Z 1903/2003 09005KT CAVOK TX35/1914Z TN17/1905Z
BECMG 1909/1912 26010KT
TEMPO 1914/1921 VRB15G30KT 4000 SHRA BKN040CB
PROB40
TEMPO 1914/1921 VRB25G45KT 2000 TSRAGS SCT010 BKN035CB



MET'MAP, la Météo Aéronautique d'un coup d'oeil ! - Copyright ORBIFLY Décembre 2007 - Disclaimer

ORBIFLY MET'MAP TEAM :

Programmation & Développement : Alexandra Zaïnal
Sur une idée originale de : Baudouin d'Aumeries
Soutien technique & logistique : Manuel Goepfert
Assistance : Marc-Olivier Méhu




SOURCES & CREDITS :

   NOAA